createdAt,value
2023-03-01T00:01:41.284Z,84.06
2023-03-01T00:06:48.903Z,83.84
2023-03-01T00:11:52.770Z,83.66
2023-03-01T00:16:56.634Z,83.37
2023-03-01T00:22:00.424Z,83.36
2023-03-01T00:27:04.330Z,83.99
2023-03-01T00:32:08.612Z,83.86
2023-03-01T00:37:12.692Z,84.04
2023-03-01T00:42:17.978Z,84.06
2023-03-01T00:47:21.885Z,84.78
2023-03-01T00:52:25.801Z,84.62
2023-03-01T00:57:30.274Z,84.47
2023-03-01T01:02:35.210Z,84.52
2023-03-01T01:07:39.388Z,86.07
2023-03-01T01:12:48.522Z,87.27
2023-03-01T01:17:52.391Z,87.57
2023-03-01T01:22:56.159Z,86.40
2023-03-01T01:28:01.029Z,85.65
2023-03-01T01:33:04.725Z,85.96
2023-03-01T01:38:08.648Z,86.54
2023-03-01T01:43:29.059Z,86.90
2023-03-01T01:48:46.924Z,87.28
2023-03-01T01:53:55.268Z,87.72
2023-03-01T01:58:59.179Z,87.78
2023-03-01T02:04:03.077Z,87.55
2023-03-01T02:09:12.120Z,87.19
2023-03-01T02:14:17.163Z,87.18
2023-03-01T02:19:44.581Z,87.16
2023-03-01T02:25:06.579Z,86.93
2023-03-01T02:30:13.641Z,86.54
2023-03-01T02:35:19.539Z,86.32
2023-03-01T02:40:23.248Z,86.27
2023-03-01T02:45:28.350Z,86.30
2023-03-01T02:50:32.036Z,86.15
2023-03-01T02:55:35.828Z,86.04
2023-03-01T03:00:48.228Z,85.87
2023-03-01T03:05:53.430Z,85.03
2023-03-01T03:10:57.478Z,84.93
2023-03-01T03:16:05.011Z,84.85
2023-03-01T03:21:13.945Z,84.84
2023-03-01T03:26:25.207Z,84.92
2023-03-01T03:31:30.005Z,85.12
2023-03-01T03:36:34.405Z,85.50
2023-03-01T03:41:38.157Z,85.85
2023-03-01T03:46:41.805Z,86.33
2023-03-01T03:51:47.798Z,86.29
2023-03-01T03:56:51.392Z,85.60
2023-03-01T04:01:55.153Z,84.99
2023-03-01T04:06:58.885Z,84.79
2023-03-01T04:12:02.460Z,85.06
2023-03-01T04:17:07.204Z,85.58
2023-03-01T04:22:12.556Z,85.74
2023-03-01T04:27:16.387Z,86.45
2023-03-01T04:32:21.703Z,86.38
2023-03-01T04:37:27.131Z,86.25
2023-03-01T04:42:31.295Z,86.14
2023-03-01T04:47:39.265Z,85.90
2023-03-01T04:52:46.242Z,85.64
2023-03-01T04:57:49.918Z,85.58
2023-03-01T05:02:56.743Z,85.53
2023-03-01T05:08:03.470Z,85.74
2023-03-01T05:13:07.896Z,85.66
2023-03-01T05:18:12.714Z,85.52
2023-03-01T05:23:17.334Z,85.05
2023-03-01T05:28:21.857Z,84.77
2023-03-01T05:33:26.599Z,84.86
2023-03-01T05:38:30.292Z,85.05
2023-03-01T05:43:36.632Z,85.60
2023-03-01T05:48:41.041Z,85.71
2023-03-01T05:53:45.747Z,85.89
2023-03-01T05:58:51.147Z,85.84
2023-03-01T06:03:55.332Z,85.92
2023-03-01T06:08:59.013Z,85.87
2023-03-01T06:14:03.072Z,85.86
2023-03-01T06:19:06.862Z,85.94
2023-03-01T06:24:10.654Z,85.98
2023-03-01T06:29:15.022Z,85.85
2023-03-01T06:34:18.724Z,86.00
2023-03-01T06:39:23.955Z,86.08
2023-03-01T06:44:28.407Z,85.97
2023-03-01T06:49:32.072Z,85.87
2023-03-01T06:54:35.662Z,85.96
2023-03-01T06:59:39.376Z,86.32
2023-03-01T07:04:43.822Z,86.59
2023-03-01T07:09:50.847Z,85.97
2023-03-01T07:14:55.088Z,85.58
2023-03-01T07:19:58.825Z,85.77
2023-03-01T07:25:05.596Z,86.12
2023-03-01T07:30:12.354Z,85.57
2023-03-01T07:35:17.216Z,85.46
2023-03-01T07:40:23.260Z,84.91
2023-03-01T07:45:27.644Z,85.20
2023-03-01T07:50:32.294Z,85.08
2023-03-01T07:55:37.714Z,84.78
2023-03-01T08:00:41.672Z,84.34
2023-03-01T08:05:47.786Z,83.95
2023-03-01T08:10:53.617Z,83.64
2023-03-01T08:16:12.508Z,83.21
2023-03-01T08:21:21.097Z,81.41
2023-03-01T08:26:25.331Z,79.63
2023-03-01T08:31:38.072Z,79.50
2023-03-01T08:36:45.783Z,79.34
2023-03-01T08:41:50.596Z,77.93
2023-03-01T08:46:55.933Z,77.21
2023-03-01T08:52:02.398Z,74.49
2023-03-01T08:57:06.919Z,73.79
2023-03-01T09:02:17.226Z,72.09
2023-03-01T09:07:21.789Z,71.24
2023-03-01T09:12:27.572Z,70.11
2023-03-01T09:17:31.636Z,70.51
2023-03-01T09:22:37.006Z,70.61
2023-03-01T09:27:41.091Z,67.36
2023-03-01T09:32:46.129Z,68.61
2023-03-01T09:37:52.343Z,69.56
2023-03-01T09:43:07.585Z,68.72
2023-03-01T09:48:27.606Z,64.79
2023-03-01T09:53:37.895Z,65.18
2023-03-01T09:59:01.043Z,62.30
2023-03-01T10:04:29.857Z,61.10
2023-03-01T10:09:36.547Z,61.40
2023-03-01T10:14:59.585Z,59.93
2023-03-01T10:20:25.205Z,61.08
2023-03-01T10:25:41.812Z,58.78
2023-03-01T10:30:47.305Z,61.45
2023-03-01T10:35:51.891Z,60.00
2023-03-01T10:41:02.725Z,59.40
2023-03-01T10:46:29.288Z,56.58
2023-03-01T10:51:36.168Z,56.92
2023-03-01T10:57:01.941Z,57.14
2023-03-01T11:02:31.940Z,57.64
2023-03-01T11:07:55.321Z,57.53
2023-03-01T11:13:27.162Z,56.08
2023-03-01T11:18:46.289Z,55.49
2023-03-01T11:23:56.076Z,54.03
2023-03-01T11:29:04.173Z,54.28
2023-03-01T11:34:20.641Z,54.89
2023-03-01T11:39:53.846Z,53.52
2023-03-01T11:45:01.501Z,52.84
2023-03-01T11:50:16.756Z,49.64
2023-03-01T11:55:48.848Z,47.88
2023-03-01T12:01:15.504Z,48.87
2023-03-01T12:06:29.081Z,49.23
2023-03-01T12:11:53.048Z,49.13
2023-03-01T12:17:07.260Z,46.75
2023-03-01T12:22:27.326Z,45.10
2023-03-01T12:27:47.573Z,45.68
2023-03-01T12:33:25.475Z,45.81
2023-03-01T12:38:51.744Z,48.52
2023-03-01T12:44:07.431Z,45.68
2023-03-01T12:49:21.044Z,47.98
2023-03-01T12:54:30.247Z,50.81
2023-03-01T13:00:10.328Z,51.54
2023-03-01T13:05:35.435Z,51.16
2023-03-01T13:10:55.962Z,51.01
2023-03-01T13:16:23.031Z,50.51
2023-03-01T13:21:33.261Z,51.33
2023-03-01T13:27:09.526Z,50.73
2023-03-01T13:32:44.514Z,48.86
2023-03-01T13:37:49.189Z,50.15
2023-03-01T13:43:04.693Z,50.44
2023-03-01T13:48:20.683Z,49.71
2023-03-01T13:53:27.888Z,50.62
2023-03-01T13:58:35.665Z,50.35
2023-03-01T14:03:44.005Z,50.41
2023-03-01T14:08:50.572Z,50.56
2023-03-01T14:14:16.585Z,49.36
2023-03-01T14:19:34.702Z,49.05
2023-03-01T14:24:42.432Z,50.53
2023-03-01T14:29:57.229Z,49.71
2023-03-01T14:35:01.798Z,49.24
2023-03-01T14:40:06.613Z,50.12
2023-03-01T14:45:14.338Z,49.94
2023-03-01T14:50:43.311Z,50.58
2023-03-01T14:56:01.703Z,50.35
2023-03-01T15:01:06.326Z,49.60
2023-03-01T15:06:10.688Z,50.52
2023-03-01T15:11:30.944Z,50.72
2023-03-01T15:16:35.809Z,51.03
2023-03-01T15:21:41.134Z,50.76
2023-03-01T15:26:53.024Z,51.22
2023-03-01T15:31:59.941Z,51.33
2023-03-01T15:37:07.250Z,50.74
2023-03-01T15:42:32.526Z,51.05
2023-03-01T15:47:37.797Z,52.40
2023-03-01T15:52:42.925Z,52.31
2023-03-01T15:57:47.918Z,52.01
2023-03-01T16:02:52.214Z,52.89
2023-03-01T16:08:01.085Z,53.48
2023-03-01T16:13:05.857Z,54.65
2023-03-01T16:18:12.421Z,55.17
2023-03-01T16:23:22.263Z,55.63
2023-03-01T16:28:29.308Z,56.03
2023-03-01T16:33:36.262Z,56.22
2023-03-01T16:38:42.892Z,56.60
2023-03-01T16:43:52.686Z,57.41
2023-03-01T16:48:58.329Z,58.41
2023-03-01T16:54:05.988Z,58.86
2023-03-01T16:59:10.773Z,59.42
2023-03-01T17:04:15.562Z,60.22
2023-03-01T17:09:30.596Z,61.13
2023-03-01T17:14:40.326Z,61.35
2023-03-01T17:19:46.181Z,61.50
2023-03-01T17:24:50.804Z,61.96
2023-03-01T17:29:59.949Z,62.12
2023-03-01T17:35:06.961Z,62.46
2023-03-01T17:40:15.524Z,62.36
2023-03-01T17:45:20.514Z,62.98
2023-03-01T17:50:26.919Z,64.25
2023-03-01T17:55:35.467Z,67.47
2023-03-01T18:00:40.722Z,67.77
2023-03-01T18:05:45.466Z,66.47
2023-03-01T18:11:00.661Z,66.04
2023-03-01T18:16:10.602Z,66.96
2023-03-01T18:21:19.039Z,67.70
2023-03-01T18:26:25.604Z,67.53
2023-03-01T18:31:34.122Z,67.55
2023-03-01T18:36:41.400Z,66.91
2023-03-01T18:41:48.402Z,66.83
2023-03-01T18:46:58.672Z,66.92
2023-03-01T18:52:06.483Z,66.97
2023-03-01T18:57:13.104Z,67.77
2023-03-01T19:02:17.852Z,67.76
2023-03-01T19:07:23.001Z,67.96
2023-03-01T19:12:29.482Z,68.21
2023-03-01T19:17:37.517Z,68.16
2023-03-01T19:22:43.558Z,71.29
2023-03-01T19:27:50.087Z,71.00
2023-03-01T19:32:58.635Z,70.81
2023-03-01T19:38:06.545Z,70.41
2023-03-01T19:43:12.576Z,70.24
2023-03-01T19:48:20.742Z,68.96
2023-03-01T19:53:30.603Z,67.66
2023-03-01T19:58:39.356Z,67.80
2023-03-01T20:03:44.568Z,68.93
2023-03-01T20:08:52.215Z,68.44
2023-03-01T20:13:59.959Z,71.10
2023-03-01T20:19:08.660Z,73.61
2023-03-01T20:24:14.785Z,74.45
2023-03-01T20:29:21.055Z,74.72
2023-03-01T20:34:28.218Z,74.77
2023-03-01T20:39:34.914Z,75.11
2023-03-01T20:44:44.999Z,74.58
2023-03-01T20:49:53.319Z,75.39
2023-03-01T20:54:58.935Z,76.20
2023-03-01T21:00:05.678Z,77.01
2023-03-01T21:05:11.101Z,79.24
2023-03-01T21:10:20.208Z,80.16
2023-03-01T21:15:32.281Z,78.89
2023-03-01T21:20:43.142Z,79.06
2023-03-01T21:25:48.762Z,79.20
2023-03-01T21:30:52.547Z,78.82
2023-03-01T21:36:04.534Z,78.52
2023-03-01T21:41:16.680Z,79.25
2023-03-01T21:46:25.979Z,80.73
2023-03-01T21:51:30.896Z,78.19
2023-03-01T21:56:39.340Z,78.76
2023-03-01T22:01:43.561Z,78.08
2023-03-01T22:06:47.907Z,74.76
2023-03-01T22:11:54.943Z,75.14
2023-03-01T22:16:59.536Z,78.03
2023-03-01T22:22:04.091Z,78.73
2023-03-01T22:27:07.921Z,78.75
2023-03-01T22:32:11.834Z,78.28
2023-03-01T22:37:16.982Z,79.26
2023-03-01T22:42:20.679Z,80.41
2023-03-01T22:47:24.376Z,82.14
2023-03-01T22:52:28.180Z,82.72
2023-03-01T22:57:32.054Z,83.99
2023-03-01T23:02:38.337Z,84.23
2023-03-01T23:07:42.372Z,82.80
2023-03-01T23:12:46.278Z,81.95
2023-03-01T23:17:50.221Z,81.43
2023-03-01T23:22:53.910Z,80.62
2023-03-01T23:27:57.501Z,78.75
2023-03-01T23:33:01.396Z,78.67
2023-03-01T23:38:05.357Z,79.55
2023-03-01T23:43:08.931Z,80.06
2023-03-01T23:48:13.833Z,79.88
2023-03-01T23:53:19.019Z,80.15
2023-03-01T23:58:28.812Z,81.05
